Time;durP1;ratioP1;P1;durP2;ratioP2;P2;SDS_P1;SDS_P2;PMS_P1;PMS_P2;Temp;Humidity;BMP_temperature;BMP_pressure;BME280_temperature;BME280_humidity;BME280_pressure;Samples;Min_cycle;Max_cycle;Signal;HPM_P1;HPM_P2
2023/06/30 00:01:48;;;;;;;;;;;13.90;99.90;;;;;;5009507;28;19980;-79
2023/06/30 00:04:16;;;;;;;;;;;13.90;99.90;;;;;;5005954;28;19941;-78
2023/06/30 00:06:42;;;;;;;;;;;13.90;99.90;;;;;;5009205;28;20024;-70
2023/06/30 00:09:08;;;;;;;;;;;13.90;99.90;;;;;;4992255;28;20031;-65
2023/06/30 00:11:33;;;;;;;;;;;13.90;99.90;;;;;;5010524;28;19917;-68
2023/06/30 00:13:59;;;;;;;;;;;13.80;99.90;;;;;;5000556;28;20369;-75
2023/06/30 00:16:25;;;;;;;;;;;13.80;99.90;;;;;;5012739;28;19964;-71
2023/06/30 00:18:55;;;;;;;;;;;13.80;99.90;;;;;;5004937;28;19921;-65
2023/06/30 00:21:21;;;;;;;;;;;13.70;99.90;;;;;;5012363;28;20000;-73
2023/06/30 00:23:47;;;;;;;;;;;13.70;99.90;;;;;;4994083;28;20056;-78
2023/06/30 00:26:12;;;;;;;;;;;13.70;99.90;;;;;;5024859;28;20226;-81
2023/06/30 00:28:38;;;;;;;;;;;13.70;99.90;;;;;;5074642;28;19995;-66
2023/06/30 00:31:04;;;;;;;;;;;13.70;99.90;;;;;;5073537;28;20307;-67
2023/06/30 00:33:29;;;;;;;;;;;13.70;99.90;;;;;;5074409;28;19912;-65
2023/06/30 00:35:55;;;;;;;;;;;13.70;99.90;;;;;;5074196;28;19909;-64
2023/06/30 00:38:21;;;;;;;;;;;13.70;99.90;;;;;;5056579;28;19974;-65
2023/06/30 00:40:46;;;;;;;;;;;13.70;99.90;;;;;;5077923;28;19917;-65
2023/06/30 00:43:12;;;;;;;;;;;13.60;99.90;;;;;;5078230;28;19927;-65
2023/06/30 00:45:38;;;;;;;;;;;13.50;99.90;;;;;;5078607;28;20003;-74
2023/06/30 00:48:03;;;;;;;;;;;13.50;99.90;;;;;;5077906;28;20315;-65
2023/06/30 00:50:29;;;;;;;;;;;13.40;99.90;;;;;;5077717;28;19908;-65
2023/06/30 00:52:55;;;;;;;;;;;13.40;99.90;;;;;;5076724;28;19916;-71
2023/06/30 00:55:22;;;;;;;;;;;13.30;99.90;;;;;;5078274;28;20321;-66
2023/06/30 00:57:48;;;;;;;;;;;13.30;99.90;;;;;;5077864;28;19909;-65
2023/06/30 01:00:15;;;;;;;;;;;13.30;99.90;;;;;;5077037;28;19923;-79
2023/06/30 01:03:07;;;;;;;;;;;13.30;99.90;;;;;;5060738;28;20223;-81
2023/06/30 01:05:40;;;;;;;;;;;13.30;99.90;;;;;;5062012;28;19909;-76
2023/06/30 01:08:17;;;;;;;;;;;13.20;99.90;;;;;;5053743;28;20285;-81
2023/06/30 01:10:45;;;;;;;;;;;13.10;99.90;;;;;;5059894;28;19940;-67
2023/06/30 01:13:11;;;;;;;;;;;13.10;99.90;;;;;;5060294;28;19913;-81
2023/06/30 01:15:37;;;;;;;;;;;13.10;99.90;;;;;;5077806;28;19912;-68
2023/06/30 01:18:03;;;;;;;;;;;13.10;99.90;;;;;;5077110;28;19916;-80
2023/06/30 01:20:32;;;;;;;;;;;13.20;99.90;;;;;;5075731;28;19931;-79
2023/06/30 01:23:04;;;;;;;;;;;13.20;99.90;;;;;;5077527;28;20360;-76
2023/06/30 01:25:29;;;;;;;;;;;13.20;99.90;;;;;;5074039;28;19931;-69
2023/06/30 01:27:56;;;;;;;;;;;13.20;99.90;;;;;;5060549;28;20299;-75
2023/06/30 01:30:22;;;;;;;;;;;13.20;99.90;;;;;;5075881;28;19928;-71
2023/06/30 01:32:50;;;;;;;;;;;13.10;99.90;;;;;;5077582;28;19919;-67
2023/06/30 01:35:16;;;;;;;;;;;13.10;99.90;;;;;;5077963;28;19908;-75
2023/06/30 01:37:43;;;;;;;;;;;13.10;99.90;;;;;;5077589;28;19977;-70
2023/06/30 01:40:08;;;;;;;;;;;13.10;99.90;;;;;;5059460;28;19923;-76
2023/06/30 01:42:35;;;;;;;;;;;13.10;99.90;;;;;;5076885;28;19913;-81
2023/06/30 01:45:03;;;;;;;;;;;13.00;99.90;;;;;;5077949;28;19916;-65
2023/06/30 01:47:28;;;;;;;;;;;13.00;99.90;;;;;;5059337;28;19920;-77
2023/06/30 01:49:55;;;;;;;;;;;13.00;99.90;;;;;;5059151;28;19929;-80
2023/06/30 01:52:21;;;;;;;;;;;13.00;99.90;;;;;;5077716;28;19916;-67
2023/06/30 01:54:47;;;;;;;;;;;13.00;99.90;;;;;;5077389;28;20309;-73
2023/06/30 01:57:14;;;;;;;;;;;12.90;99.90;;;;;;5077473;28;19912;-75
2023/06/30 01:59:39;;;;;;;;;;;12.90;99.90;;;;;;5076731;28;20003;-73
2023/06/30 02:02:05;;;;;;;;;;;12.90;99.90;;;;;;5076623;28;19916;-75
2023/06/30 02:04:31;;;;;;;;;;;12.80;99.90;;;;;;5076106;28;19970;-71
2023/06/30 02:06:58;;;;;;;;;;;12.70;99.90;;;;;;5077404;28;19991;-69
2023/06/30 02:09:23;;;;;;;;;;;12.70;99.90;;;;;;5076529;28;19939;-79
2023/06/30 02:11:49;;;;;;;;;;;12.70;99.90;;;;;;5076142;28;19912;-73
2023/06/30 02:14:15;;;;;;;;;;;12.60;99.90;;;;;;5076408;28;19965;-79
2023/06/30 02:16:40;;;;;;;;;;;12.60;99.90;;;;;;5074428;28;19985;-81
2023/06/30 02:19:06;;;;;;;;;;;12.60;99.90;;;;;;5072174;28;20311;-77
2023/06/30 02:21:31;;;;;;;;;;;12.50;99.90;;;;;;5076036;28;19923;-65
2023/06/30 02:23:57;;;;;;;;;;;12.50;99.90;;;;;;5076983;28;19913;-81
2023/06/30 02:26:23;;;;;;;;;;;12.50;99.90;;;;;;5058794;28;20028;-78
2023/06/30 02:28:51;;;;;;;;;;;12.50;99.90;;;;;;5076696;28;20018;-66
2023/06/30 02:31:17;;;;;;;;;;;12.50;99.90;;;;;;5076859;28;19982;-81
2023/06/30 02:33:43;;;;;;;;;;;12.50;99.90;;;;;;5074805;28;19927;-75
2023/06/30 02:36:09;;;;;;;;;;;12.50;99.90;;;;;;5076645;28;20262;-73
2023/06/30 02:38:34;;;;;;;;;;;12.50;99.90;;;;;;5058075;28;20218;-70
2023/06/30 02:41:00;;;;;;;;;;;12.50;99.90;;;;;;5058332;28;19997;-78
2023/06/30 02:43:25;;;;;;;;;;;12.50;99.90;;;;;;5058638;28;19912;-77
2023/06/30 02:45:56;;;;;;;;;;;12.50;99.90;;;;;;5076205;28;19961;-66
2023/06/30 02:48:23;;;;;;;;;;;12.50;99.90;;;;;;5072211;28;19918;-79
2023/06/30 02:50:48;;;;;;;;;;;12.50;99.90;;;;;;5058811;28;20330;-76
2023/06/30 02:53:14;;;;;;;;;;;12.50;99.90;;;;;;5074693;28;19912;-73
2023/06/30 02:55:39;;;;;;;;;;;12.50;99.90;;;;;;5076165;28;20468;-79
2023/06/30 02:58:05;;;;;;;;;;;12.50;99.90;;;;;;5075396;28;21209;-67
2023/06/30 03:00:30;;;;;;;;;;;12.50;99.90;;;;;;5073633;28;19924;-70
2023/06/30 03:02:56;;;;;;;;;;;12.60;99.90;;;;;;5074632;28;19954;-78
2023/06/30 03:05:22;;;;;;;;;;;12.60;99.90;;;;;;5075874;28;19920;-77
2023/06/30 03:07:49;;;;;;;;;;;12.60;99.90;;;;;;5075197;28;20204;-70
2023/06/30 03:10:14;;;;;;;;;;;12.60;99.90;;;;;;5075846;28;20222;-68
2023/06/30 03:12:42;;;;;;;;;;;12.60;99.90;;;;;;5076314;28;19909;-75
2023/06/30 03:15:07;;;;;;;;;;;12.60;99.90;;;;;;5075894;28;20184;-75
2023/06/30 03:17:34;;;;;;;;;;;12.60;99.90;;;;;;5075096;28;19909;-68
2023/06/30 03:19:59;;;;;;;;;;;12.60;99.90;;;;;;5056796;28;20219;-65
2023/06/30 03:22:25;;;;;;;;;;;12.60;99.90;;;;;;5075854;28;19915;-75
2023/06/30 03:24:52;;;;;;;;;;;12.50;99.90;;;;;;5076193;28;19917;-70
2023/06/30 03:27:18;;;;;;;;;;;12.50;99.90;;;;;;5054633;28;20215;-69
2023/06/30 03:29:44;;;;;;;;;;;12.40;99.90;;;;;;5054592;28;20074;-78
2023/06/30 03:32:10;;;;;;;;;;;12.40;99.90;;;;;;5075524;28;20365;-66
2023/06/30 03:34:36;;;;;;;;;;;12.40;99.90;;;;;;5058119;28;20242;-66
2023/06/30 03:37:02;;;;;;;;;;;12.40;99.90;;;;;;5075414;28;19917;-69
2023/06/30 03:39:28;;;;;;;;;;;12.40;99.90;;;;;;5073308;28;19981;-69
2023/06/30 03:41:55;;;;;;;;;;;12.40;99.90;;;;;;5074359;28;19919;-75
2023/06/30 03:44:23;;;;;;;;;;;12.40;99.90;;;;;;5075153;28;19916;-79
2023/06/30 03:46:49;;;;;;;;;;;12.40;99.90;;;;;;5075509;28;20003;-69
2023/06/30 03:49:15;;;;;;;;;;;12.40;99.90;;;;;;5056720;28;19991;-66
2023/06/30 03:51:41;;;;;;;;;;;12.40;99.90;;;;;;5075321;28;19920;-67
2023/06/30 03:54:07;;;;;;;;;;;12.40;99.90;;;;;;5054890;28;19908;-79
2023/06/30 03:56:33;;;;;;;;;;;12.40;99.90;;;;;;5056369;28;20330;-72
2023/06/30 03:58:58;;;;;;;;;;;12.40;99.90;;;;;;5072512;28;20003;-66
2023/06/30 04:01:26;;;;;;;;;;;12.40;99.90;;;;;;5071557;28;19930;-76
2023/06/30 04:03:52;;;;;;;;;;;12.50;99.90;;;;;;5071129;28;19920;-71
2023/06/30 04:06:17;;;;;;;;;;;12.40;99.90;;;;;;5073874;28;19920;-72
2023/06/30 04:08:44;;;;;;;;;;;12.40;99.90;;;;;;5074105;28;20257;-80
2023/06/30 04:11:09;;;;;;;;;;;12.50;99.90;;;;;;5073971;28;20314;-70
2023/06/30 04:13:35;;;;;;;;;;;12.50;99.90;;;;;;5072214;28;19942;-77
2023/06/30 04:16:01;;;;;;;;;;;12.50;99.90;;;;;;5074323;28;19924;-79
2023/06/30 04:18:27;;;;;;;;;;;12.60;99.90;;;;;;5074425;28;20406;-80
2023/06/30 04:20:53;;;;;;;;;;;12.60;99.90;;;;;;5073004;28;19916;-66
2023/06/30 04:23:19;;;;;;;;;;;12.60;99.90;;;;;;5054453;28;20200;-84
2023/06/30 04:25:45;;;;;;;;;;;12.60;99.90;;;;;;5074452;28;19912;-72
2023/06/30 04:28:11;;;;;;;;;;;12.70;99.90;;;;;;5046285;28;19924;-68
2023/06/30 04:30:37;;;;;;;;;;;12.70;99.90;;;;;;5074014;28;19908;-66
2023/06/30 04:33:03;;;;;;;;;;;12.80;99.90;;;;;;5055974;28;19908;-69
2023/06/30 04:35:28;;;;;;;;;;;12.90;99.90;;;;;;5072402;28;19912;-79
2023/06/30 04:37:54;;;;;;;;;;;12.90;99.90;;;;;;5074049;28;20222;-77
2023/06/30 04:40:20;;;;;;;;;;;13.00;99.90;;;;;;5072969;28;19920;-75
2023/06/30 04:42:45;;;;;;;;;;;13.10;99.90;;;;;;5070676;28;19909;-79
2023/06/30 04:45:11;;;;;;;;;;;13.10;99.90;;;;;;5072069;28;20326;-78
2023/06/30 04:47:37;;;;;;;;;;;13.10;99.90;;;;;;5072581;28;19920;-76
2023/06/30 04:50:04;;;;;;;;;;;13.10;99.90;;;;;;5056012;28;19982;-77
2023/06/30 04:52:29;;;;;;;;;;;13.20;99.90;;;;;;5075774;28;19956;-72
2023/06/30 04:54:56;;;;;;;;;;;13.20;99.90;;;;;;5073036;28;19951;-69
2023/06/30 04:57:22;;;;;;;;;;;13.30;99.90;;;;;;5074609;28;19920;-65
2023/06/30 04:59:50;;;;;;;;;;;13.40;99.90;;;;;;5054257;28;19946;-83
2023/06/30 05:02:17;;;;;;;;;;;13.50;99.90;;;;;;5055453;28;19916;-78
2023/06/30 05:04:42;;;;;;;;;;;13.60;99.90;;;;;;5074330;28;19931;-81
2023/06/30 05:07:09;;;;;;;;;;;13.70;99.90;;;;;;5074349;28;20296;-71
2023/06/30 05:09:35;;;;;;;;;;;13.70;99.90;;;;;;5073849;28;19913;-74
2023/06/30 05:12:02;;;;;;;;;;;13.80;99.90;;;;;;5054437;28;19924;-67
2023/06/30 05:14:28;;;;;;;;;;;13.90;99.90;;;;;;5070116;28;19909;-73
2023/06/30 05:16:54;;;;;;;;;;;14.00;99.90;;;;;;5074151;28;19916;-81
2023/06/30 05:19:21;;;;;;;;;;;14.00;99.90;;;;;;5072908;28;19923;-69
2023/06/30 05:21:47;;;;;;;;;;;14.10;99.90;;;;;;5072674;28;19920;-80
2023/06/30 05:24:13;;;;;;;;;;;14.10;99.90;;;;;;5052785;28;19909;-77
2023/06/30 05:26:39;;;;;;;;;;;14.10;99.90;;;;;;5077230;28;19938;-72
2023/06/30 05:29:06;;;;;;;;;;;14.20;99.90;;;;;;5078420;28;19958;-83
2023/06/30 05:31:33;;;;;;;;;;;14.20;99.90;;;;;;5060070;28;19908;-72
2023/06/30 05:33:59;;;;;;;;;;;14.30;99.90;;;;;;5076177;28;20011;-76
2023/06/30 05:36:25;;;;;;;;;;;14.30;99.90;;;;;;5059451;28;19909;-74
2023/06/30 05:38:51;;;;;;;;;;;14.40;99.90;;;;;;5076705;28;20181;-75
2023/06/30 05:41:17;;;;;;;;;;;14.40;99.90;;;;;;5077500;28;19923;-70
2023/06/30 05:43:43;;;;;;;;;;;14.40;99.90;;;;;;5077867;28;20421;-79
2023/06/30 05:46:10;;;;;;;;;;;14.40;99.90;;;;;;5058036;28;20003;-73
2023/06/30 05:48:36;;;;;;;;;;;14.50;99.90;;;;;;5074122;28;19916;-70
2023/06/30 05:51:01;;;;;;;;;;;14.60;99.90;;;;;;5071830;28;19942;-66
2023/06/30 05:53:27;;;;;;;;;;;14.60;99.90;;;;;;5072544;28;19912;-71
2023/06/30 05:55:55;;;;;;;;;;;14.70;99.90;;;;;;5071898;28;19913;-77
2023/06/30 05:58:25;;;;;;;;;;;14.70;99.90;;;;;;5072123;28;20351;-83
2023/06/30 06:00:52;;;;;;;;;;;14.70;99.90;;;;;;5072567;28;20397;-69
2023/06/30 06:03:18;;;;;;;;;;;14.80;99.90;;;;;;5054835;28;19913;-85
2023/06/30 06:05:43;;;;;;;;;;;14.80;99.90;;;;;;5054379;28;20308;-78
2023/06/30 06:08:09;;;;;;;;;;;14.90;99.90;;;;;;5070612;28;19912;-76
2023/06/30 06:10:35;;;;;;;;;;;15.00;99.90;;;;;;5072453;28;19912;-74
2023/06/30 06:13:02;;;;;;;;;;;15.10;99.90;;;;;;5051986;28;19920;-79
2023/06/30 06:15:28;;;;;;;;;;;15.10;99.90;;;;;;5071611;28;20573;-84
2023/06/30 06:17:55;;;;;;;;;;;15.10;99.90;;;;;;5071830;28;19916;-69
2023/06/30 06:20:20;;;;;;;;;;;15.20;99.90;;;;;;5071660;28;20380;-77
2023/06/30 06:22:46;;;;;;;;;;;15.20;99.90;;;;;;5049175;28;19916;-76
2023/06/30 06:25:12;;;;;;;;;;;15.20;99.90;;;;;;5071158;28;20297;-78
2023/06/30 06:27:38;;;;;;;;;;;15.30;99.90;;;;;;5070937;28;19955;-78
2023/06/30 06:30:05;;;;;;;;;;;15.40;99.90;;;;;;5073081;28;19916;-69
2023/06/30 06:32:32;;;;;;;;;;;15.50;99.90;;;;;;5070969;28;20523;-71
2023/06/30 06:34:58;;;;;;;;;;;15.70;99.90;;;;;;5053852;28;20311;-66
2023/06/30 06:37:23;;;;;;;;;;;15.70;99.90;;;;;;5069711;28;19920;-66
2023/06/30 06:39:49;;;;;;;;;;;15.70;99.90;;;;;;5052484;28;19927;-72
2023/06/30 06:42:15;;;;;;;;;;;15.70;99.90;;;;;;5069639;28;19916;-75
2023/06/30 06:44:41;;;;;;;;;;;15.80;99.90;;;;;;5053024;28;20339;-71
2023/06/30 06:47:26;;;;;;;;;;;15.80;99.90;;;;;;5051558;28;19916;-66
2023/06/30 06:49:52;;;;;;;;;;;15.90;99.90;;;;;;5071907;28;20349;-75
2023/06/30 06:52:17;;;;;;;;;;;16.00;99.90;;;;;;5057203;28;19918;-75
2023/06/30 06:54:43;;;;;;;;;;;16.10;99.90;;;;;;5073620;28;19974;-72
2023/06/30 06:57:10;;;;;;;;;;;16.20;99.90;;;;;;5070887;28;19934;-69
2023/06/30 06:59:35;;;;;;;;;;;16.30;99.90;;;;;;5027741;28;19936;-66
2023/06/30 07:02:01;;;;;;;;;;;16.40;99.90;;;;;;5030294;28;19921;-66
2023/06/30 07:04:27;;;;;;;;;;;16.50;99.90;;;;;;5029451;28;19982;-70
2023/06/30 07:06:52;;;;;;;;;;;16.60;99.90;;;;;;5020962;28;19917;-77
2023/06/30 07:09:18;;;;;;;;;;;16.70;99.90;;;;;;5029555;28;19917;-66
2023/06/30 07:11:44;;;;;;;;;;;16.80;99.90;;;;;;5028994;28;19995;-68
2023/06/30 07:14:10;;;;;;;;;;;16.80;99.90;;;;;;5030460;28;19935;-66
2023/06/30 07:16:36;;;;;;;;;;;16.90;99.90;;;;;;5027909;28;19917;-79
2023/06/30 07:19:03;;;;;;;;;;;16.90;99.90;;;;;;5029473;28;20327;-73
2023/06/30 07:21:28;;;;;;;;;;;17.10;99.90;;;;;;5027302;28;19974;-67
2023/06/30 07:23:54;;;;;;;;;;;17.20;99.90;;;;;;5022231;28;20304;-77
2023/06/30 07:26:22;;;;;;;;;;;17.40;99.90;;;;;;5020248;28;19990;-68
2023/06/30 07:28:48;;;;;;;;;;;17.60;99.90;;;;;;5022528;28;19914;-67
2023/06/30 07:31:14;;;;;;;;;;;17.60;99.90;;;;;;5018310;28;19913;-67
2023/06/30 07:33:42;;;;;;;;;;;17.70;99.90;;;;;;5018816;28;19925;-79
2023/06/30 07:36:08;;;;;;;;;;;17.70;99.90;;;;;;5019391;28;19921;-68
2023/06/30 07:38:34;;;;;;;;;;;17.80;99.90;;;;;;5008857;28;19922;-72
2023/06/30 07:41:00;;;;;;;;;;;17.80;99.90;;;;;;5011411;28;19917;-79
2023/06/30 07:43:25;;;;;;;;;;;17.90;99.90;;;;;;5019475;28;19913;-71
2023/06/30 07:45:52;;;;;;;;;;;18.00;99.90;;;;;;5029050;28;19924;-69
2023/06/30 07:48:18;;;;;;;;;;;18.10;99.90;;;;;;5026847;28;19983;-66
2023/06/30 07:50:44;;;;;;;;;;;18.10;99.90;;;;;;5019984;28;20383;-73
2023/06/30 07:53:09;;;;;;;;;;;18.20;99.90;;;;;;5023917;28;19924;-70
2023/06/30 07:55:37;;;;;;;;;;;18.30;99.90;;;;;;5024272;28;19964;-78
2023/06/30 07:58:03;;;;;;;;;;;18.40;99.90;;;;;;5026886;28;19920;-71
2023/06/30 08:00:30;;;;;;;;;;;18.50;99.90;;;;;;5074425;28;20227;-69
2023/06/30 08:02:57;;;;;;;;;;;18.70;99.90;;;;;;5073600;28;20310;-69
2023/06/30 08:05:24;;;;;;;;;;;18.80;99.90;;;;;;5072977;28;19912;-66
2023/06/30 08:07:51;;;;;;;;;;;19.00;99.90;;;;;;5074161;28;19978;-81
2023/06/30 08:10:18;;;;;;;;;;;19.20;99.90;;;;;;5073520;28;19916;-74
2023/06/30 08:12:44;;;;;;;;;;;19.50;99.90;;;;;;5070482;28;19995;-78
2023/06/30 08:15:10;;;;;;;;;;;19.80;99.90;;;;;;5072711;28;20012;-77
2023/06/30 08:17:35;;;;;;;;;;;19.80;99.90;;;;;;5074116;28;19908;-68
2023/06/30 08:20:02;;;;;;;;;;;19.70;99.90;;;;;;5047607;28;20228;-70
2023/06/30 08:22:28;;;;;;;;;;;19.70;99.90;;;;;;5055756;28;19912;-74
2023/06/30 08:24:54;;;;;;;;;;;19.70;99.90;;;;;;5073753;28;19944;-75
2023/06/30 08:27:20;;;;;;;;;;;19.70;99.90;;;;;;5057219;28;19952;-67
2023/06/30 08:29:46;;;;;;;;;;;19.80;99.90;;;;;;5073703;28;19982;-74
2023/06/30 08:32:12;;;;;;;;;;;20.10;99.90;;;;;;5073895;28;19916;-72
2023/06/30 08:34:40;;;;;;;;;;;20.20;99.90;;;;;;5073527;28;20184;-77
2023/06/30 08:37:06;;;;;;;;;;;20.20;99.90;;;;;;5074388;28;20031;-76
2023/06/30 08:39:31;;;;;;;;;;;20.20;99.90;;;;;;5073420;28;20023;-77
2023/06/30 08:41:59;;;;;;;;;;;20.40;99.90;;;;;;5073987;28;20231;-78
2023/06/30 08:44:25;;;;;;;;;;;20.50;99.90;;;;;;5073524;28;19921;-73
2023/06/30 08:46:54;;;;;;;;;;;20.70;99.90;;;;;;5052486;28;20318;-67
2023/06/30 08:49:21;;;;;;;;;;;20.90;99.90;;;;;;5071523;28;19939;-76
2023/06/30 08:51:47;;;;;;;;;;;21.20;99.90;;;;;;5054947;28;19935;-67
2023/06/30 08:54:12;;;;;;;;;;;21.30;99.90;;;;;;5073758;28;19912;-75
2023/06/30 08:56:40;;;;;;;;;;;21.20;99.90;;;;;;5073969;28;19952;-72
2023/06/30 08:59:06;;;;;;;;;;;21.10;99.90;;;;;;5053231;28;19931;-76
2023/06/30 09:01:31;;;;;;;;;;;21.10;99.90;;;;;;5076702;28;19925;-78
2023/06/30 09:03:57;;;;;;;;;;;21.00;99.90;;;;;;5074226;28;19919;-70
2023/06/30 09:06:24;;;;;;;;;;;21.00;99.90;;;;;;5077045;28;19953;-81
2023/06/30 09:09:00;;;;;;;;;;;21.00;99.90;;;;;;5077464;28;20408;-74
2023/06/30 09:11:28;;;;;;;;;;;21.00;99.90;;;;;;5075241;28;20313;-74
2023/06/30 09:13:56;;;;;;;;;;;21.00;99.90;;;;;;5059859;28;19921;-78
2023/06/30 09:16:22;;;;;;;;;;;21.20;99.90;;;;;;5077180;28;20003;-73
2023/06/30 09:18:49;;;;;;;;;;;21.30;99.90;;;;;;5059130;28;20368;-69
2023/06/30 09:21:18;;;;;;;;;;;21.50;99.90;;;;;;5078035;28;19924;-69
2023/06/30 09:23:44;;;;;;;;;;;21.60;99.90;;;;;;5077549;28;19912;-81
2023/06/30 09:26:13;;;;;;;;;;;21.80;99.90;;;;;;5076863;28;19924;-80
2023/06/30 09:28:44;;;;;;;;;;;21.80;99.90;;;;;;5073096;28;19912;-78
2023/06/30 09:31:10;;;;;;;;;;;21.90;99.90;;;;;;5076550;28;19913;-67
2023/06/30 09:33:43;;;;;;;;;;;21.90;99.90;;;;;;5077290;28;20409;-67
2023/06/30 09:36:17;;;;;;;;;;;22.10;99.90;;;;;;5047590;28;20309;-79
2023/06/30 09:38:43;;;;;;;;;;;22.10;99.90;;;;;;5077755;28;19923;-69
2023/06/30 09:41:18;;;;;;;;;;;22.00;99.90;;;;;;5077249;28;19912;-76
2023/06/30 09:43:44;;;;;;;;;;;21.90;99.90;;;;;;5077799;28;19935;-76
2023/06/30 09:46:11;;;;;;;;;;;21.80;99.90;;;;;;5077246;28;20299;-77
2023/06/30 09:48:40;;;;;;;;;;;21.70;99.90;;;;;;5071902;28;19912;-69
2023/06/30 09:51:07;;;;;;;;;;;21.60;99.90;;;;;;5075214;28;19919;-71
2023/06/30 09:53:40;;;;;;;;;;;21.40;99.90;;;;;;5059664;28;19908;-76
2023/06/30 09:56:07;;;;;;;;;;;21.30;99.90;;;;;;5077287;28;19909;-75
2023/06/30 09:58:33;;;;;;;;;;;21.20;99.90;;;;;;5077460;28;19969;-80
2023/06/30 10:00:59;;;;;;;;;;;21.00;99.90;;;;;;5073068;28;20362;-74
2023/06/30 10:03:25;;;;;;;;;;;21.10;99.90;;;;;;5058231;28;20062;-75
2023/06/30 10:05:53;;;;;;;;;;;21.20;99.90;;;;;;5077675;28;19916;-76
2023/06/30 10:08:22;;;;;;;;;;;21.30;99.90;;;;;;5077153;28;19912;-72
2023/06/30 10:10:52;;;;;;;;;;;21.60;99.90;;;;;;5075353;28;20196;-73
2023/06/30 10:13:17;;;;;;;;;;;21.80;99.90;;;;;;5075188;28;19916;-74
2023/06/30 10:15:44;;;;;;;;;;;21.90;99.90;;;;;;5069647;28;20334;-76
2023/06/30 10:18:11;;;;;;;;;;;22.00;99.90;;;;;;5069541;28;20422;-68
2023/06/30 10:20:37;;;;;;;;;;;22.10;99.90;;;;;;5077171;28;20261;-84
2023/06/30 10:23:04;;;;;;;;;;;22.40;99.90;;;;;;5076828;28;19921;-68
2023/06/30 10:25:31;;;;;;;;;;;22.40;99.90;;;;;;5076681;28;19908;-67
2023/06/30 10:27:57;;;;;;;;;;;22.50;99.90;;;;;;5076368;28;19917;-67
2023/06/30 10:30:24;;;;;;;;;;;22.60;99.90;;;;;;5071657;28;19913;-67
2023/06/30 10:32:50;;;;;;;;;;;22.70;99.90;;;;;;5076483;28;20322;-68
2023/06/30 10:35:16;;;;;;;;;;;22.70;99.90;;;;;;5081124;28;19916;-67
2023/06/30 10:37:42;;;;;;;;;;;22.90;99.90;;;;;;5076145;28;20039;-80
2023/06/30 10:40:09;;;;;;;;;;;23.00;99.90;;;;;;5075028;28;19921;-72
2023/06/30 10:42:37;;;;;;;;;;;23.10;99.90;;;;;;5058619;28;19908;-69
2023/06/30 10:45:03;;;;;;;;;;;23.10;99.90;;;;;;5076643;28;19912;-75
2023/06/30 10:47:29;;;;;;;;;;;23.00;99.90;;;;;;5076257;28;20180;-73
2023/06/30 10:49:55;;;;;;;;;;;23.10;99.90;;;;;;5075809;28;20003;-69
2023/06/30 10:52:25;;;;;;;;;;;23.10;99.90;;;;;;5075441;28;20357;-75
2023/06/30 10:54:51;;;;;;;;;;;23.20;99.90;;;;;;5055657;28;20219;-74
2023/06/30 10:57:28;;;;;;;;;;;23.10;99.90;;;;;;5074323;28;19916;-78
2023/06/30 11:00:07;;;;;;;;;;;23.10;99.90;;;;;;5071061;28;20322;-75
2023/06/30 11:02:53;;;;;;;;;;;23.20;99.90;;;;;;5071210;28;20342;-70
2023/06/30 11:05:20;;;;;;;;;;;23.50;99.90;;;;;;5052258;28;19944;-69
2023/06/30 11:07:49;;;;;;;;;;;23.60;99.90;;;;;;5070828;28;19916;-81
2023/06/30 11:10:26;;;;;;;;;;;23.60;99.90;;;;;;5057706;28;19910;-74
2023/06/30 11:12:53;;;;;;;;;;;23.60;99.90;;;;;;5057932;28;19977;-72
2023/06/30 11:15:39;;;;;;;;;;;23.60;99.90;;;;;;5057225;28;19919;-69
2023/06/30 11:18:09;;;;;;;;;;;23.50;99.90;;;;;;5071699;28;19912;-71
2023/06/30 11:20:36;;;;;;;;;;;23.60;99.90;;;;;;5072987;28;20015;-72
2023/06/30 11:23:03;;;;;;;;;;;23.80;99.90;;;;;;5065720;28;20224;-79
2023/06/30 11:25:30;;;;;;;;;;;23.90;99.90;;;;;;5073696;28;19966;-79
2023/06/30 11:27:57;;;;;;;;;;;23.90;99.90;;;;;;5074879;28;20353;-78
2023/06/30 11:30:23;;;;;;;;;;;23.80;99.90;;;;;;5075549;28;19909;-78
2023/06/30 11:32:54;;;;;;;;;;;23.70;99.90;;;;;;5074305;28;19940;-72
2023/06/30 11:35:19;;;;;;;;;;;23.70;99.90;;;;;;5074622;28;21472;-75
2023/06/30 11:37:52;;;;;;;;;;;23.50;99.90;;;;;;5074657;28;19908;-76
2023/06/30 11:40:17;;;;;;;;;;;23.30;99.90;;;;;;5053120;28;19916;-73
2023/06/30 11:42:43;;;;;;;;;;;23.00;99.90;;;;;;5054792;28;19986;-82
2023/06/30 11:45:10;;;;;;;;;;;22.90;99.90;;;;;;5074095;28;19913;-78
2023/06/30 11:47:38;;;;;;;;;;;23.00;99.90;;;;;;5073875;28;19952;-70
2023/06/30 11:50:10;;;;;;;;;;;23.00;99.90;;;;;;5073220;28;19952;-70
2023/06/30 11:52:36;;;;;;;;;;;22.80;99.90;;;;;;5074495;28;19916;-80
2023/06/30 11:55:06;;;;;;;;;;;22.60;99.90;;;;;;5074053;28;19920;-69
2023/06/30 11:57:33;;;;;;;;;;;22.40;99.90;;;;;;5055651;28;20165;-80
2023/06/30 12:00:04;;;;;;;;;;;22.00;99.90;;;;;;5073311;28;19924;-69
2023/06/30 12:02:30;;;;;;;;;;;21.80;99.90;;;;;;5073087;28;20306;-77
2023/06/30 12:04:57;;;;;;;;;;;21.60;99.90;;;;;;5055034;28;20205;-78
2023/06/30 12:07:23;;;;;;;;;;;21.30;99.90;;;;;;5053141;28;20388;-73
2023/06/30 12:09:58;;;;;;;;;;;21.20;99.90;;;;;;5072623;28;19919;-69
2023/06/30 12:12:25;;;;;;;;;;;21.10;99.90;;;;;;5071878;28;20299;-70
2023/06/30 12:14:52;;;;;;;;;;;21.10;99.90;;;;;;5072499;28;19958;-75
2023/06/30 12:17:18;;;;;;;;;;;21.20;99.90;;;;;;5073036;28;19916;-73
2023/06/30 12:19:44;;;;;;;;;;;21.30;99.90;;;;;;5072997;28;19958;-72
2023/06/30 12:22:12;;;;;;;;;;;21.40;99.90;;;;;;5072398;28;19936;-79
2023/06/30 12:24:39;;;;;;;;;;;21.70;99.90;;;;;;5071760;28;19916;-71
2023/06/30 12:27:06;;;;;;;;;;;22.10;99.90;;;;;;5073514;28;19913;-71
2023/06/30 12:29:33;;;;;;;;;;;22.50;99.90;;;;;;5073696;28;19917;-72
2023/06/30 12:31:59;;;;;;;;;;;22.70;99.90;;;;;;5071693;28;19912;-74
2023/06/30 12:34:32;;;;;;;;;;;22.80;99.90;;;;;;5055239;28;19978;-76
2023/06/30 12:36:58;;;;;;;;;;;22.80;99.90;;;;;;5073899;28;19954;-69
2023/06/30 12:39:25;;;;;;;;;;;22.80;99.90;;;;;;5073987;28;20004;-73
2023/06/30 12:41:50;;;;;;;;;;;22.80;99.90;;;;;;5074163;28;19908;-78
2023/06/30 12:44:16;;;;;;;;;;;22.80;99.90;;;;;;5071461;28;19970;-69
2023/06/30 12:46:41;;;;;;;;;;;22.70;99.90;;;;;;5072721;28;19920;-77
2023/06/30 12:49:07;;;;;;;;;;;22.60;99.90;;;;;;5072705;28;20227;-80
2023/06/30 12:51:33;;;;;;;;;;;22.60;99.90;;;;;;5073507;28;19987;-74
2023/06/30 12:53:58;;;;;;;;;;;22.60;99.90;;;;;;5074529;28;19931;-74
2023/06/30 12:56:25;;;;;;;;;;;22.50;99.90;;;;;;5054760;28;19919;-68
2023/06/30 12:58:52;;;;;;;;;;;22.40;99.90;;;;;;5073219;28;20382;-78
2023/06/30 13:01:17;;;;;;;;;;;22.40;99.90;;;;;;5074178;28;20235;-74
2023/06/30 13:03:43;;;;;;;;;;;22.40;99.90;;;;;;5074326;28;20374;-73
2023/06/30 13:06:09;;;;;;;;;;;22.40;99.90;;;;;;5074560;28;19912;-77
2023/06/30 13:08:38;;;;;;;;;;;22.30;99.90;;;;;;5054382;28;20111;-80
2023/06/30 13:11:05;;;;;;;;;;;22.40;99.90;;;;;;5072444;28;19919;-72
2023/06/30 13:13:32;;;;;;;;;;;22.70;99.90;;;;;;5054810;28;19920;-82
2023/06/30 13:15:58;;;;;;;;;;;23.00;99.90;;;;;;5073846;28;19912;-73
2023/06/30 13:18:24;;;;;;;;;;;23.20;99.90;;;;;;5073230;28;20196;-68
2023/06/30 13:20:49;;;;;;;;;;;23.40;99.90;;;;;;5074308;28;20219;-68
2023/06/30 13:23:16;;;;;;;;;;;23.20;99.90;;;;;;5073786;28;19916;-77
2023/06/30 13:25:42;;;;;;;;;;;23.10;99.90;;;;;;5074350;28;19917;-82
2023/06/30 13:28:08;;;;;;;;;;;23.00;99.90;;;;;;5074395;28;19915;-68
2023/06/30 13:30:34;;;;;;;;;;;23.10;99.90;;;;;;5074091;28;19908;-76
2023/06/30 13:33:04;;;;;;;;;;;23.20;99.90;;;;;;5074785;28;20266;-85
2023/06/30 13:35:30;;;;;;;;;;;23.40;99.90;;;;;;5056553;28;20011;-76
2023/06/30 13:38:02;;;;;;;;;;;23.60;99.90;;;;;;5055176;28;19919;-79
2023/06/30 13:40:28;;;;;;;;;;;23.70;99.90;;;;;;5056758;28;20007;-75
2023/06/30 13:42:54;;;;;;;;;;;23.80;99.90;;;;;;5072978;28;20011;-73
2023/06/30 13:45:20;;;;;;;;;;;23.90;99.90;;;;;;5056720;28;20266;-81
2023/06/30 13:47:49;;;;;;;;;;;23.90;99.90;;;;;;5076903;28;19912;-79
2023/06/30 13:50:15;;;;;;;;;;;23.70;99.90;;;;;;5077646;28;19916;-69
2023/06/30 13:52:41;;;;;;;;;;;23.50;99.90;;;;;;5076333;28;19909;-74
2023/06/30 13:55:07;;;;;;;;;;;23.50;99.90;;;;;;5077653;28;19912;-82
2023/06/30 13:57:36;;;;;;;;;;;23.70;99.90;;;;;;5077917;28;20369;-75
2023/06/30 14:00:02;;;;;;;;;;;23.80;99.90;;;;;;5034922;28;20224;-75
2023/06/30 14:02:31;;;;;;;;;;;24.00;99.90;;;;;;5037579;28;20219;-74
2023/06/30 14:04:57;;;;;;;;;;;24.00;99.90;;;;;;5037683;28;20188;-80
2023/06/30 14:07:22;;;;;;;;;;;23.70;99.90;;;;;;5036329;28;19913;-78
2023/06/30 14:09:48;;;;;;;;;;;23.60;99.90;;;;;;5037210;28;19955;-71
2023/06/30 14:12:15;;;;;;;;;;;23.60;99.90;;;;;;5037286;28;19909;-73
2023/06/30 14:14:41;;;;;;;;;;;23.50;99.90;;;;;;5033310;28;19917;-75